Time;durP1;ratioP1;P1;durP2;ratioP2;P2;SDS_P1;SDS_P2;PMS_P1;PMS_P2;Temp;Humidity;BMP_temperature;BMP_pressure;BME280_temperature;BME280_humidity;BME280_pressure;Samples;Min_cycle;Max_cycle;Signal;HPM_P1;HPM_P2
2023/01/27 00:01:05;;;;;;;6.60;2.22;;;;;;;-146.73;100.00;56421.06;6150932;23;20060;-92
2023/01/27 00:03:32;;;;;;;7.30;2.40;;;;;;;-146.73;100.00;56421.06;6150205;23;20016;-92
2023/01/27 00:06:00;;;;;;;8.27;2.90;;;;;;;-146.73;100.00;56421.06;6174178;23;20032;-93
2023/01/27 00:08:26;;;;;;;7.38;2.35;;;;;;;-146.73;100.00;56421.06;6155007;23;20451;-93
2023/01/27 00:13:47;;;;;;;7.40;2.50;;;;;;;-146.73;100.00;56421.06;6181084;23;20047;-94
2023/01/27 00:16:19;;;;;;;9.02;2.70;;;;;;;-146.73;100.00;56421.06;6153324;23;20250;-93
2023/01/27 00:18:48;;;;;;;8.48;2.42;;;;;;;-146.73;100.00;56421.06;6153584;23;20012;-94
2023/01/27 00:26:48;;;;;;;8.55;2.05;;;;;;;-146.73;100.00;56421.06;6176499;23;20074;-93
2023/01/27 00:29:16;;;;;;;7.93;2.30;;;;;;;-146.73;100.00;56421.06;6152935;23;20021;-92
2023/01/27 00:34:31;;;;;;;7.35;2.00;;;;;;;-146.73;100.00;56421.06;6180974;23;20079;-93
2023/01/27 00:36:56;;;;;;;7.80;2.63;;;;;;;-146.73;100.00;56421.06;6153327;23;20021;-93
2023/01/27 00:39:22;;;;;;;12.32;3.10;;;;;;;-146.73;100.00;56421.06;6153449;23;20012;-92
2023/01/27 00:41:48;;;;;;;8.68;3.08;;;;;;;-146.73;100.00;56421.06;6153902;23;20012;-93
2023/01/27 00:44:13;;;;;;;10.55;3.33;;;;;;;-146.73;100.00;56421.06;6156267;23;20453;-92
2023/01/27 00:46:40;;;;;;;11.15;3.28;;;;;;;-146.73;100.00;56421.06;6158817;23;20380;-93
2023/01/27 00:49:06;;;;;;;8.02;2.70;;;;;;;-146.73;100.00;56421.06;6183854;23;20074;-92
2023/01/27 00:51:32;;;;;;;8.27;2.85;;;;;;;-146.73;100.00;56421.06;6157593;23;20044;-95
2023/01/27 00:54:03;;;;;;;6.90;2.17;;;;;;;-146.73;100.00;56421.06;6155744;23;20336;-95
2023/01/27 00:56:29;;;;;;;7.38;2.80;;;;;;;-146.73;100.00;56421.06;6157475;23;20462;-92
2023/01/27 00:58:55;;;;;;;8.32;3.20;;;;;;;-146.73;100.00;56421.06;6156298;23;20008;-94
2023/01/27 01:01:21;;;;;;;9.73;2.88;;;;;;;-146.73;100.00;56421.06;6158024;23;20328;-95
2023/01/27 01:03:51;;;;;;;9.13;2.80;;;;;;;-146.73;100.00;56421.06;6158184;23;20005;-95
2023/01/27 01:06:20;;;;;;;11.77;2.97;;;;;;;-146.73;100.00;56421.06;6157407;23;20020;-95
2023/01/27 01:08:47;;;;;;;8.73;2.88;;;;;;;-146.73;100.00;56421.06;6156558;23;20035;-93
2023/01/27 01:11:15;;;;;;;7.85;2.67;;;;;;;-146.73;100.00;56421.06;6156985;23;20283;-94
2023/01/27 01:13:42;;;;;;;8.57;2.70;;;;;;;-146.73;100.00;56421.06;6157408;23;20005;-94
2023/01/27 01:16:11;;;;;;;9.40;2.53;;;;;;;-146.73;100.00;56421.06;6157843;23;20091;-94
2023/01/27 01:18:37;;;;;;;8.32;2.70;;;;;;;-146.73;100.00;56421.06;6157343;23;20013;-95
2023/01/27 01:21:05;;;;;;;8.05;2.53;;;;;;;-146.73;100.00;56421.06;6157068;23;20013;-94
2023/01/27 01:23:31;;;;;;;8.35;2.70;;;;;;;-146.73;100.00;56421.06;6155799;23;20015;-94
2023/01/27 01:26:00;;;;;;;9.43;2.88;;;;;;;-146.73;100.00;56421.06;6156288;23;20016;-94
2023/01/27 01:28:28;;;;;;;8.70;2.45;;;;;;;-146.73;100.00;56421.06;6155000;23;20005;-94
2023/01/27 01:30:53;;;;;;;7.68;2.35;;;;;;;-146.73;100.00;56421.06;6154252;23;20024;-95
2023/01/27 01:33:19;;;;;;;10.35;2.45;;;;;;;-146.73;100.00;56421.06;6155756;23;20017;-94
2023/01/27 01:35:44;;;;;;;9.15;2.63;;;;;;;-146.73;100.00;56421.06;6183076;23;20044;-94
2023/01/27 01:38:10;;;;;;;7.20;2.80;;;;;;;-146.73;100.00;56421.06;6156662;23;20015;-94
2023/01/27 01:40:43;;;;;;;8.55;2.97;;;;;;;-146.73;100.00;56421.06;6156654;23;20152;-95
2023/01/27 01:43:17;;;;;;;8.52;2.53;;;;;;;-146.73;100.00;56421.06;6156020;23;20005;-94
2023/01/27 01:45:52;;;;;;;11.02;2.70;;;;;;;-146.73;100.00;56421.06;6181864;23;20017;-91
2023/01/27 01:48:31;;;;;;;11.48;3.30;;;;;;;-146.73;100.00;56421.06;6157097;23;20005;-94
2023/01/27 01:51:12;;;;;;;8.18;2.80;;;;;;;-146.73;100.00;56421.06;6157632;23;20053;-93
2023/01/27 01:53:58;;;;;;;10.00;3.13;;;;;;;-146.73;100.00;56421.06;6156755;23;20450;-93
2023/01/27 01:56:35;;;;;;;9.40;2.88;;;;;;;-146.73;100.00;56421.06;6157448;23;20017;-94
2023/01/27 01:59:05;;;;;;;10.00;2.95;;;;;;;-146.73;100.00;56421.06;6155194;23;20036;-94
2023/01/27 02:01:33;;;;;;;8.45;3.22;;;;;;;-146.73;100.00;56421.06;6157505;23;20013;-94
2023/01/27 02:04:06;;;;;;;12.20;3.13;;;;;;;-146.73;100.00;56421.06;6158040;23;20021;-94
2023/01/27 02:06:42;;;;;;;9.38;3.22;;;;;;;-146.73;100.00;56421.06;6156699;23;20024;-93
2023/01/27 02:09:09;;;;;;;8.23;3.08;;;;;;;-146.73;100.00;56421.06;6155677;23;20008;-93
2023/01/27 02:11:34;;;;;;;11.73;3.58;;;;;;;-146.73;100.00;56421.06;6158907;23;20025;-92
2023/01/27 02:14:01;;;;;;;10.55;3.95;;;;;;;-146.73;100.00;56421.06;6156465;23;20016;-93
2023/01/27 02:16:29;;;;;;;10.23;3.70;;;;;;;-146.73;100.00;56421.06;6183561;23;20013;-94
2023/01/27 02:18:56;;;;;;;12.05;3.97;;;;;;;-146.73;100.00;56421.06;6157316;23;20040;-94
2023/01/27 02:21:21;;;;;;;14.05;4.00;;;;;;;-146.73;100.00;56421.06;6157165;23;20005;-93
2023/01/27 02:23:53;;;;;;;12.60;4.38;;;;;;;-146.73;100.00;56421.06;6183811;23;20036;-94
2023/01/27 02:26:29;;;;;;;10.77;3.67;;;;;;;-146.73;100.00;56421.06;6158085;23;20028;-94
2023/01/27 02:28:58;;;;;;;12.13;3.80;;;;;;;-146.73;100.00;56421.06;6156583;23;20017;-94
2023/01/27 02:31:25;;;;;;;10.30;3.50;;;;;;;-146.73;100.00;56421.06;6155546;23;20340;-94
2023/01/27 02:33:56;;;;;;;8.90;3.60;;;;;;;-146.73;100.00;56421.06;6181684;23;20080;-94
2023/01/27 02:36:22;;;;;;;11.70;4.07;;;;;;;-146.73;100.00;56421.06;6155358;23;20015;-94
2023/01/27 02:38:56;;;;;;;10.15;4.05;;;;;;;-146.73;100.00;56421.06;6155722;23;20005;-94
2023/01/27 02:41:43;;;;;;;12.35;4.50;;;;;;;-146.73;100.00;56421.06;6156141;23;20013;-94
2023/01/27 02:44:12;;;;;;;12.05;4.20;;;;;;;-146.73;100.00;56421.06;6154940;23;20013;-94
2023/01/27 02:46:37;;;;;;;12.68;4.43;;;;;;;-146.73;100.00;56421.06;6156567;23;20021;-95
2023/01/27 02:49:03;;;;;;;10.60;4.20;;;;;;;-146.73;100.00;56421.06;6156241;23;20059;-93
2023/01/27 02:51:30;;;;;;;10.98;4.00;;;;;;;-146.73;100.00;56421.06;6157219;23;20015;-93
2023/01/27 02:53:56;;;;;;;11.70;4.13;;;;;;;-146.73;100.00;56421.06;6156629;23;20012;-92
2023/01/27 02:56:25;;;;;;;11.32;4.13;;;;;;;-146.73;100.00;56421.06;6154930;23;20722;-93
2023/01/27 02:58:51;;;;;;;9.23;3.90;;;;;;;-146.73;100.00;56421.06;6154027;23;20092;-94
2023/01/27 03:04:20;;;;;;;9.98;4.22;;;;;;;-146.73;100.00;56421.06;6177593;23;20025;-92
2023/01/27 03:06:51;;;;;;;11.43;3.80;;;;;;;-146.73;100.00;56421.06;6153616;23;20031;-93
2023/01/27 03:09:16;;;;;;;10.23;3.78;;;;;;;-146.73;100.00;56421.06;6156562;23;20004;-95
2023/01/27 03:19:57;;;;;;;10.18;3.50;;;;;;;-146.73;100.00;56421.06;6181576;23;20111;-94
2023/01/27 03:22:22;;;;;;;9.40;3.55;;;;;;;-146.73;100.00;56421.06;6181902;23;20723;-93
2023/01/27 03:24:48;;;;;;;9.18;3.03;;;;;;;-146.73;100.00;56421.06;6180871;23;20447;-92
2023/01/27 03:27:14;;;;;;;9.80;3.92;;;;;;;-146.73;100.00;56421.06;6152943;23;20049;-94
2023/01/27 03:29:55;;;;;;;12.52;3.72;;;;;;;-146.73;100.00;56421.06;6154155;23;20004;-94
2023/01/27 03:32:29;;;;;;;92.30;8.63;;;;;;;-146.73;100.00;56421.06;6154931;23;20088;-94
2023/01/27 03:34:59;;;;;;;73.00;6.70;;;;;;;-146.73;100.00;56421.06;6153854;23;20008;-92
2023/01/27 03:48:33;;;;;;;14.50;4.78;;;;;;;-146.73;100.00;56421.06;6179823;23;20020;-93
2023/01/27 03:50:59;;;;;;;10.98;4.45;;;;;;;-146.73;100.00;56421.06;6154869;23;20016;-93
2023/01/27 03:53:25;;;;;;;11.50;4.78;;;;;;;-146.73;100.00;56421.06;6153650;23;20017;-93
2023/01/27 03:55:50;;;;;;;11.55;5.00;;;;;;;-146.73;100.00;56421.06;6155274;23;20079;-93
2023/01/27 03:58:26;;;;;;;11.48;4.28;;;;;;;-146.73;100.00;56421.06;6180229;23;20012;-93
2023/01/27 04:01:01;;;;;;;12.93;4.20;;;;;;;-146.73;100.00;56421.06;6154871;23;20013;-92
2023/01/27 04:06:57;;;;;;;11.32;4.20;;;;;;;-146.73;100.00;56421.06;6150854;23;20399;-93
2023/01/27 04:09:31;;;;;;;13.57;4.30;;;;;;;-146.73;100.00;56421.06;6149378;23;20080;-93
2023/01/27 04:12:03;;;;;;;10.55;4.50;;;;;;;-146.73;100.00;56421.06;6150291;23;20382;-93
2023/01/27 04:14:32;;;;;;;10.38;3.90;;;;;;;-146.73;100.00;56421.06;6149246;23;20355;-94
2023/01/27 04:17:09;;;;;;;11.18;4.07;;;;;;;-146.73;100.00;56421.06;6149402;23;20020;-92
2023/01/27 04:19:35;;;;;;;10.77;4.47;;;;;;;-146.73;100.00;56421.06;6149639;23;20009;-93
2023/01/27 04:22:04;;;;;;;12.88;5.05;;;;;;;-146.73;100.00;56421.06;6149627;23;20022;-92
2023/01/27 04:24:30;;;;;;;13.18;5.05;;;;;;;-146.73;100.00;56421.06;6149169;23;20069;-93
2023/01/27 04:27:02;;;;;;;13.23;5.05;;;;;;;-146.73;100.00;56421.06;6149283;23;20013;-93
2023/01/27 04:29:30;;;;;;;11.00;4.55;;;;;;;-146.73;100.00;56421.06;6148942;23;20025;-92
2023/01/27 04:31:59;;;;;;;43.13;6.57;;;;;;;-146.73;100.00;56421.06;6149063;23;20494;-93
2023/01/27 04:34:26;;;;;;;11.70;4.53;;;;;;;-146.73;100.00;56421.06;6150127;23;20010;-93
2023/01/27 04:36:53;;;;;;;11.02;4.55;;;;;;;-146.73;100.00;56421.06;6147650;23;20010;-93
2023/01/27 04:39:19;;;;;;;10.20;4.10;;;;;;;-146.73;100.00;56421.06;6148703;23;20084;-92
2023/01/27 04:41:45;;;;;;;12.02;4.22;;;;;;;-146.73;100.00;56421.06;6149125;23;20095;-93
2023/01/27 04:44:14;;;;;;;13.20;4.13;;;;;;;-146.73;100.00;56421.06;6149254;23;20067;-92
2023/01/27 04:46:40;;;;;;;10.07;3.97;;;;;;;-146.73;100.00;56421.06;6148314;23;20431;-92
2023/01/27 04:49:10;;;;;;;11.73;4.60;;;;;;;-146.73;100.00;56421.06;6146567;23;20367;-93
2023/01/27 04:51:37;;;;;;;12.75;4.13;;;;;;;-146.73;100.00;56421.06;6148180;23;20036;-93
2023/01/27 04:54:04;;;;;;;9.98;4.00;;;;;;;-146.73;100.00;56421.06;6149919;23;20013;-94
2023/01/27 04:56:36;;;;;;;13.25;4.53;;;;;;;-146.73;100.00;56421.06;6147210;23;20538;-93
2023/01/27 04:59:05;;;;;;;11.48;3.63;;;;;;;-146.73;100.00;56421.06;6146040;23;20443;-92
2023/01/27 05:01:37;;;;;;;11.95;4.40;;;;;;;-146.73;100.00;56421.06;6147250;23;20013;-93
2023/01/27 05:04:02;;;;;;;11.50;4.50;;;;;;;-146.73;100.00;56421.06;6152113;23;20031;-93
2023/01/27 05:06:29;;;;;;;115.10;9.57;;;;;;;-146.73;100.00;56421.06;6153428;23;20008;-93
2023/01/27 05:08:56;;;;;;;67.57;7.72;;;;;;;-146.73;100.00;56421.06;6152863;23;20025;-93
2023/01/27 05:11:21;;;;;;;33.22;6.43;;;;;;;-146.73;100.00;56421.06;6153658;23;20020;-93
2023/01/27 05:13:47;;;;;;;79.40;8.52;;;;;;;-146.73;100.00;56421.06;6152870;23;20343;-92
2023/01/27 05:16:22;;;;;;;187.50;15.18;;;;;;;-146.73;100.00;56421.06;6153280;23;20012;-92
2023/01/27 05:18:49;;;;;;;200.73;15.23;;;;;;;-146.73;100.00;56421.06;6152377;23;20040;-93
2023/01/27 05:21:20;;;;;;;120.57;10.45;;;;;;;-146.73;100.00;56421.06;6152274;23;20013;-93
2023/01/27 05:23:46;;;;;;;131.73;12.00;;;;;;;-146.73;100.00;56421.06;6151622;23;20021;-93
2023/01/27 05:26:17;;;;;;;123.35;11.95;;;;;;;-146.73;100.00;56421.06;6151338;23;20419;-93
2023/01/27 05:28:45;;;;;;;36.58;7.97;;;;;;;-146.73;100.00;56421.06;6152413;23;20501;-93
2023/01/27 05:31:19;;;;;;;87.93;10.38;;;;;;;-146.73;100.00;56421.06;6153584;23;20287;-93
2023/01/27 05:33:47;;;;;;;22.08;6.03;;;;;;;-146.73;100.00;56421.06;6154951;23;20013;-93
2023/01/27 05:36:15;;;;;;;16.20;5.40;;;;;;;-146.73;100.00;56421.06;6155394;23;20016;-92
2023/01/27 05:38:41;;;;;;;26.25;5.75;;;;;;;-146.73;100.00;56421.06;6181931;23;20531;-93
2023/01/27 05:41:08;;;;;;;15.18;5.38;;;;;;;-146.73;100.00;56421.06;6155936;23;20621;-93
2023/01/27 05:43:36;;;;;;;17.25;5.88;;;;;;;-146.73;100.00;56421.06;6155530;23;20423;-92
2023/01/27 05:46:05;;;;;;;16.48;5.50;;;;;;;-146.73;100.00;56421.06;6154946;23;20021;-91
2023/01/27 05:48:31;;;;;;;15.00;5.95;;;;;;;-146.73;100.00;56421.06;6155563;23;20346;-92
2023/01/27 05:50:57;;;;;;;12.68;5.18;;;;;;;-146.73;100.00;56421.06;6156399;23;20020;-93
2023/01/27 05:53:24;;;;;;;15.75;5.03;;;;;;;-146.73;100.00;56421.06;6155994;23;20087;-92
2023/01/27 05:55:51;;;;;;;14.70;5.03;;;;;;;-146.73;100.00;56421.06;6155764;23;20423;-93
2023/01/27 05:58:20;;;;;;;12.93;4.82;;;;;;;-146.73;100.00;56421.06;6152445;23;20016;-93
2023/01/27 06:00:46;;;;;;;13.65;5.30;;;;;;;-146.73;100.00;56421.06;6153169;23;20427;-93
2023/01/27 06:03:12;;;;;;;15.95;5.00;;;;;;;-146.73;100.00;56421.06;6152744;23;20028;-92
2023/01/27 06:05:38;;;;;;;14.40;4.95;;;;;;;-146.73;100.00;56421.06;6178101;23;20013;-92
2023/01/27 06:08:04;;;;;;;14.25;5.32;;;;;;;-146.73;100.00;56421.06;6151991;23;20076;-93
2023/01/27 06:10:36;;;;;;;15.45;5.43;;;;;;;-146.73;100.00;56421.06;6151414;23;20028;-93
2023/01/27 06:13:01;;;;;;;15.25;5.45;;;;;;;-146.73;100.00;56421.06;6151392;23;20088;-93
2023/01/27 06:15:27;;;;;;;13.85;4.93;;;;;;;-146.73;100.00;56421.06;6151603;23;20037;-93
2023/01/27 06:17:56;;;;;;;13.57;5.53;;;;;;;-146.73;100.00;56421.06;6152289;23;20024;-93
2023/01/27 06:20:21;;;;;;;15.65;5.10;;;;;;;-146.73;100.00;56421.06;6152599;23;20643;-93
2023/01/27 06:22:49;;;;;;;15.98;4.93;;;;;;;-146.73;100.00;56421.06;6153318;23;20013;-93
2023/01/27 06:25:15;;;;;;;13.95;5.00;;;;;;;-146.73;100.00;56421.06;6153750;23;20009;-93
2023/01/27 06:27:43;;;;;;;15.18;4.95;;;;;;;-146.73;100.00;56421.06;6151308;23;20017;-92
2023/01/27 06:30:09;;;;;;;14.60;4.80;;;;;;;-146.73;100.00;56421.06;6179913;23;20001;-92
2023/01/27 06:32:36;;;;;;;11.68;4.55;;;;;;;-146.73;100.00;56421.06;6152068;23;20047;-93
2023/01/27 06:35:02;;;;;;;12.02;3.63;;;;;;;-146.73;100.00;56421.06;6148408;23;20019;-93
2023/01/27 06:37:28;;;;;;;16.15;4.00;;;;;;;-146.73;100.00;56421.06;6179334;23;20021;-94
2023/01/27 06:39:54;;;;;;;12.32;3.92;;;;;;;-146.73;100.00;56421.06;6150927;23;20016;-93
2023/01/27 06:42:19;;;;;;;13.20;3.83;;;;;;;-146.73;100.00;56421.06;6153218;23;20009;-92
2023/01/27 06:44:45;;;;;;;11.32;3.40;;;;;;;-146.73;100.00;56421.06;6151435;23;20005;-94
2023/01/27 06:47:10;;;;;;;13.60;4.32;;;;;;;-146.73;100.00;56421.06;6176574;23;20430;-91
2023/01/27 06:49:36;;;;;;;13.20;4.15;;;;;;;-146.73;100.00;56421.06;6149359;23;20005;-93
2023/01/27 06:52:02;;;;;;;19.58;4.60;;;;;;;-146.73;100.00;56421.06;6149536;23;20044;-93
2023/01/27 06:54:27;;;;;;;69.20;7.50;;;;;;;-146.73;100.00;56421.06;6149525;23;20013;-93
2023/01/27 06:56:56;;;;;;;15.07;4.90;;;;;;;-146.73;100.00;56421.06;6150304;23;20009;-93
2023/01/27 06:59:24;;;;;;;16.10;5.18;;;;;;;-146.73;100.00;56421.06;6152657;23;20035;-94
2023/01/27 07:01:50;;;;;;;17.27;5.68;;;;;;;-146.73;100.00;56421.06;6152507;23;20001;-94
2023/01/27 07:04:19;;;;;;;15.95;5.28;;;;;;;-146.73;100.00;56421.06;5975649;23;4062707;-94
2023/01/27 07:06:44;;;;;;;15.18;5.22;;;;;;;-146.73;100.00;56421.06;6150710;23;20028;-94
2023/01/27 07:09:11;;;;;;;11.20;3.88;;;;;;;-146.73;100.00;56421.06;6150855;23;20439;-93
2023/01/27 07:11:36;;;;;;;12.45;4.32;;;;;;;-146.73;100.00;56421.06;6152016;23;20005;-93
2023/01/27 07:14:02;;;;;;;13.65;5.05;;;;;;;-146.73;100.00;56421.06;6153327;23;20012;-93
2023/01/27 07:16:28;;;;;;;12.15;3.85;;;;;;;-146.73;100.00;56421.06;6144882;23;20100;-92
2023/01/27 07:18:57;;;;;;;15.02;4.10;;;;;;;-146.73;100.00;56421.06;6145360;23;20450;-91
2023/01/27 07:21:24;;;;;;;14.10;4.10;;;;;;;-146.73;100.00;56421.06;6144330;23;20009;-92
2023/01/27 07:23:50;;;;;;;16.63;4.45;;;;;;;-146.73;100.00;56421.06;6143193;23;20025;-92
2023/01/27 07:26:16;;;;;;;11.95;3.70;;;;;;;-146.73;100.00;56421.06;6146125;23;20748;-93
2023/01/27 07:28:41;;;;;;;12.43;3.88;;;;;;;-146.73;100.00;56421.06;6145340;23;20064;-92
2023/01/27 07:31:07;;;;;;;12.10;3.70;;;;;;;-146.73;100.00;56421.06;6147101;23;20017;-93
2023/01/27 07:33:33;;;;;;;15.45;3.70;;;;;;;-146.73;100.00;56421.06;6149243;23;20002;-93
2023/01/27 07:35:59;;;;;;;14.43;3.88;;;;;;;-146.73;100.00;56421.06;6148732;23;20010;-92
2023/01/27 07:38:26;;;;;;;13.35;3.72;;;;;;;-146.73;100.00;56421.06;6148005;23;20009;-92
2023/01/27 07:40:52;;;;;;;13.13;3.70;;;;;;;-146.73;100.00;56421.06;6148406;23;20016;-93
2023/01/27 07:43:18;;;;;;;13.23;3.70;;;;;;;-146.73;100.00;56421.06;6147528;23;20009;-93
2023/01/27 07:45:47;;;;;;;11.15;4.15;;;;;;;-146.73;100.00;56421.06;6148416;23;20017;-92
2023/01/27 07:48:13;;;;;;;13.18;3.97;;;;;;;-146.73;100.00;56421.06;6147731;23;20009;-92
2023/01/27 07:50:40;;;;;;;13.13;3.67;;;;;;;-146.73;100.00;56421.06;6148497;23;20158;-93
2023/01/27 07:53:06;;;;;;;21.25;4.07;;;;;;;-146.73;100.00;56421.06;6148869;23;20013;-92
2023/01/27 07:55:32;;;;;;;12.10;3.67;;;;;;;-146.73;100.00;56421.06;6147372;23;20036;-93
2023/01/27 07:57:58;;;;;;;15.75;4.20;;;;;;;-146.73;100.00;56421.06;6147670;23;20021;-92
2023/01/27 08:00:24;;;;;;;18.13;4.63;;;;;;;-146.73;100.00;56421.06;6147236;23;20559;-92
2023/01/27 08:02:59;;;;;;;11.20;3.90;;;;;;;-146.73;100.00;56421.06;6152295;23;20021;-93
2023/01/27 08:05:26;;;;;;;13.52;3.83;;;;;;;-146.73;100.00;56421.06;6153776;23;20308;-93
2023/01/27 08:07:54;;;;;;;65.05;7.78;;;;;;;-146.73;100.00;56421.06;6153337;23;20012;-91
2023/01/27 08:10:24;;;;;;;12.80;3.55;;;;;;;-146.73;100.00;56421.06;6154603;23;20362;-92
2023/01/27 08:12:49;;;;;;;12.52;3.55;;;;;;;-146.73;100.00;56421.06;6179558;23;20013;-94
2023/01/27 08:15:15;;;;;;;11.30;3.45;;;;;;;-146.73;100.00;56421.06;6153007;23;20032;-93
2023/01/27 08:17:41;;;;;;;11.82;2.92;;;;;;;-146.73;100.00;56421.06;6152990;23;20052;-92
2023/01/27 08:20:07;;;;;;;11.68;3.60;;;;;;;-146.73;100.00;56421.06;6176844;23;20009;-92
2023/01/27 08:22:33;;;;;;;13.27;3.58;;;;;;;-146.73;100.00;56421.06;6149857;23;20013;-91
2023/01/27 08:25:04;;;;;;;13.23;3.50;;;;;;;-146.73;100.00;56421.06;6149033;23;20505;-92
2023/01/27 08:27:33;;;;;;;15.75;3.25;;;;;;;-146.73;100.00;56421.06;6176907;23;20255;-90
2023/01/27 08:30:05;;;;;;;9.63;3.35;;;;;;;-146.73;100.00;56421.06;6149748;23;20059;-91
2023/01/27 08:32:36;;;;;;;11.55;3.40;;;;;;;-146.73;100.00;56421.06;6150058;23;20012;-92
2023/01/27 08:35:02;;;;;;;12.82;2.97;;;;;;;-146.73;100.00;56421.06;6148488;23;20391;-92
2023/01/27 08:37:30;;;;;;;10.73;3.10;;;;;;;-146.73;100.00;56421.06;6150164;23;20016;-91
2023/01/27 08:39:58;;;;;;;10.43;3.00;;;;;;;-146.73;100.00;56421.06;6151595;23;20775;-91
2023/01/27 08:42:24;;;;;;;11.85;3.05;;;;;;;-146.73;100.00;56421.06;6151822;23;20016;-93
2023/01/27 08:44:54;;;;;;;9.73;3.25;;;;;;;-146.73;100.00;56421.06;6152527;23;20837;-93
2023/01/27 08:47:35;;;;;;;12.30;3.83;;;;;;;-146.73;100.00;56421.06;6152309;23;20017;-93
2023/01/27 08:53:16;;;;;;;12.80;3.50;;;;;;;-146.73;100.00;56421.06;6105851;23;20015;-93
2023/01/27 08:55:42;;;;;;;10.82;3.50;;;;;;;-146.73;100.00;56421.06;6146139;23;20130;-93
2023/01/27 08:58:08;;;;;;;11.15;3.90;;;;;;;-146.73;100.00;56421.06;6150438;23;20041;-92
2023/01/27 09:00:39;;;;;;;14.13;4.35;;;;;;;-146.73;100.00;56421.06;6178509;23;20005;-93
2023/01/27 09:03:15;;;;;;;12.00;4.40;;;;;;;-146.73;100.00;56421.06;6179280;23;20013;-93
2023/01/27 09:05:41;;;;;;;13.90;4.82;;;;;;;-146.73;100.00;56421.06;6154801;23;20055;-92
2023/01/27 09:08:13;;;;;;;14.77;5.03;;;;;;;-146.73;100.00;56421.06;6155503;23;20012;-93
2023/01/27 09:10:40;;;;;;;17.13;5.28;;;;;;;-146.73;100.00;56421.06;6156208;23;20005;-92
2023/01/27 09:13:07;;;;;;;15.45;5.82;;;;;;;-146.73;100.00;56421.06;6155770;23;20008;-93
2023/01/27 09:15:39;;;;;;;15.55;4.97;;;;;;;-146.73;100.00;56421.06;6118428;23;20104;-94
2023/01/27 09:18:05;;;;;;;14.40;5.50;;;;;;;-146.73;100.00;56421.06;6116062;23;20009;-93
2023/01/27 09:20:53;;;;;;;;;;;;;;;;;;;;;
2023/01/27 09:23:19;;;;;;;13.13;3.90;;;;;;;-146.73;100.00;56421.06;6116192;23;20014;-92
2023/01/27 09:25:52;;;;;;;14.32;4.70;;;;;;;-146.73;100.00;56421.06;6118051;23;20477;-92
2023/01/27 09:28:27;;;;;;;14.77;4.63;;;;;;;-146.73;100.00;56421.06;6091282;23;20018;-93
2023/01/27 09:31:04;;;;;;;11.30;4.80;;;;;;;-146.73;100.00;56421.06;6094992;23;20056;-92
2023/01/27 09:33:51;;;;;;;14.73;4.78;;;;;;;-146.73;100.00;56421.06;6115050;23;20017;-94
2023/01/27 09:36:20;;;;;;;21.20;5.30;;;;;;;-146.73;100.00;56421.06;6119525;23;20009;-93
2023/01/27 09:39:03;;;;;;;14.57;5.57;;;;;;;-146.73;100.00;56421.06;6120032;23;20014;-92
2023/01/27 09:41:47;;;;;;;16.33;5.28;;;;;;;-146.73;100.00;56421.06;6119731;23;20053;-93
2023/01/27 09:44:34;;;;;;;14.82;4.88;;;;;;;-146.73;100.00;56421.06;6095443;23;20021;-93
2023/01/27 09:47:26;;;;;;;16.63;5.78;;;;;;;-146.73;100.00;56421.06;6093219;23;20475;-92
2023/01/27 09:50:27;;;;;;;15.45;5.35;;;;;;;-146.73;100.00;56421.06;6094717;23;20125;-93
2023/01/27 09:53:36;;;;;;;15.05;4.93;;;;;;;-146.73;100.00;56421.06;6145343;23;20092;-93
2023/01/27 09:56:27;;;;;;;13.75;4.75;;;;;;;-146.73;100.00;56421.06;6154518;23;20013;-93
2023/01/27 09:59:03;;;;;;;13.35;4.40;;;;;;;-146.73;100.00;56421.06;6154594;23;20008;-93
2023/01/27 10:01:52;;;;;;;16.52;5.03;;;;;;;-146.73;100.00;56421.06;6154955;23;20021;-93
2023/01/27 10:04:55;;;;;;;14.18;3.80;;;;;;;-146.73;100.00;56421.06;6179731;23;20024;-93
2023/01/27 10:08:05;;;;;;;14.68;4.18;;;;;;;-146.73;100.00;56421.06;6154198;23;20109;-91
2023/01/27 10:11:08;;;;;;;10.18;2.70;;;;;;;-146.73;100.00;56421.06;6175599;23;20016;-93
2023/01/27 10:14:04;;;;;;;12.05;2.35;;;;;;;-146.73;100.00;56421.06;6154589;23;20016;-93
2023/01/27 10:16:57;;;;;;;11.32;2.42;;;;;;;-146.73;100.00;56421.06;6154156;23;20005;-92
2023/01/27 10:19:41;;;;;;;10.30;2.33;;;;;;;-146.73;100.00;56421.06;6154794;23;20048;-93
2023/01/27 10:22:22;;;;;;;8.88;2.60;;;;;;;-146.73;100.00;56421.06;6155441;23;20004;-92
2023/01/27 10:25:00;;;;;;;11.00;2.28;;;;;;;-146.73;100.00;56421.06;6151733;23;20016;-93
2023/01/27 10:27:29;;;;;;;8.90;2.28;;;;;;;-146.73;100.00;56421.06;6155395;23;20013;-93
2023/01/27 10:29:55;;;;;;;8.95;2.20;;;;;;;-146.73;100.00;56421.06;6155295;23;20013;-93
2023/01/27 10:32:54;;;;;;;9.95;2.53;;;;;;;-146.73;100.00;56421.06;6155737;23;20059;-93
2023/01/27 10:35:27;;;;;;;10.32;2.95;;;;;;;-146.73;100.00;56421.06;6155187;23;20012;-91
2023/01/27 10:38:03;;;;;;;12.40;3.40;;;;;;;-146.73;100.00;56421.06;6155979;23;20103;-92
2023/01/27 10:40:43;;;;;;;10.63;4.03;;;;;;;-146.73;100.00;56421.06;6183147;23;20027;-93
2023/01/27 10:43:16;;;;;;;10.57;3.83;;;;;;;-146.73;100.00;56421.06;6154990;23;20029;-92
2023/01/27 10:45:55;;;;;;;20.35;4.88;;;;;;;-146.73;100.00;56421.06;6154973;23;20141;-93
2023/01/27 10:48:34;;;;;;;15.77;4.70;;;;;;;-146.73;100.00;56421.06;6153758;23;20021;-94
2023/01/27 10:51:18;;;;;;;13.82;4.38;;;;;;;-146.73;100.00;56421.06;6153388;23;20032;-92
2023/01/27 10:54:01;;;;;;;14.55;4.68;;;;;;;-146.73;100.00;56421.06;6178747;23;20009;-93
2023/01/27 10:56:29;;;;;;;12.73;3.97;;;;;;;-146.73;100.00;56421.06;6152859;23;20063;-91
2023/01/27 10:59:17;;;;;;;11.43;3.72;;;;;;;-146.73;100.00;56421.06;6151446;23;20025;-92
2023/01/27 11:02:23;;;;;;;14.82;3.72;;;;;;;-146.73;100.00;56421.06;6150981;23;20512;-92
2023/01/27 11:04:58;;;;;;;8.30;2.53;;;;;;;-146.73;100.00;56421.06;6150001;23;20120;-92
2023/01/27 11:07:25;;;;;;;8.68;2.53;;;;;;;-146.73;100.00;56421.06;6178512;23;20451;-94
2023/01/27 11:10:15;;;;;;;10.02;2.25;;;;;;;-146.73;100.00;56421.06;6154390;23;20043;-93
2023/01/27 11:12:52;;;;;;;8.70;2.00;;;;;;;-146.73;100.00;56421.06;6152922;23;20174;-94
2023/01/27 11:15:32;;;;;;;9.05;1.83;;;;;;;-146.73;100.00;56421.06;6178896;23;20024;-93
2023/01/27 11:18:44;;;;;;;8.95;2.00;;;;;;;-146.73;100.00;56421.06;6150395;23;20528;-93
2023/01/27 11:21:55;;;;;;;8.68;2.10;;;;;;;-146.73;100.00;56421.06;6034606;23;20067;-93
2023/01/27 11:25:06;;;;;;;10.52;2.13;;;;;;;-146.73;100.00;56421.06;6005020;23;20031;-93
2023/01/27 11:28:02;;;;;;;8.73;2.10;;;;;;;-146.73;100.00;56421.06;6025493;23;20071;-93
2023/01/27 11:31:07;;;;;;;9.07;2.10;;;;;;;-146.73;100.00;56421.06;6030975;23;20019;-92
2023/01/27 11:33:36;;;;;;;8.60;2.33;;;;;;;-146.73;100.00;56421.06;6028883;23;20015;-93
2023/01/27 11:36:08;;;;;;;9.18;2.30;;;;;;;-146.73;100.00;56421.06;6030044;23;20019;-93
2023/01/27 11:39:02;;;;;;;9.77;2.10;;;;;;;-146.73;100.00;56421.06;6032538;23;20517;-93
2023/01/27 11:42:02;;;;;;;;;;;;;;;;;;;;;
2023/01/27 11:44:34;;;;;;;7.30;2.00;;;;;;;-146.73;100.00;56421.06;6024050;23;20090;-93
2023/01/27 11:47:07;;;;;;;9.30;2.15;;;;;;;-146.73;100.00;56421.06;6006315;23;20079;-93
2023/01/27 11:49:52;;;;;;;10.95;2.17;;;;;;;-146.73;100.00;56421.06;6006438;23;20015;-92
2023/01/27 11:52:25;;;;;;;9.43;2.30;;;;;;;-146.73;100.00;56421.06;6010482;23;20011;-94
2023/01/27 11:55:14;;;;;;;11.40;2.28;;;;;;;-146.73;100.00;56421.06;6060022;23;20431;-93
2023/01/27 11:58:01;;;;;;;9.52;2.42;;;;;;;-146.73;100.00;56421.06;6122084;23;20027;-93
2023/01/27 12:01:19;;;;;;;8.45;2.45;;;;;;;-146.73;100.00;56421.06;6138750;23;20021;-94
2023/01/27 12:04:36;;;;;;;7.88;2.15;;;;;;;-146.73;100.00;56421.06;6090004;23;20025;-92
2023/01/27 12:07:24;;;;;;;7.40;2.35;;;;;;;-146.73;100.00;56421.06;6036122;23;20102;-91
2023/01/27 12:09:55;;;;;;;8.88;2.10;;;;;;;-146.73;100.00;56421.06;6035064;23;20089;-92